sensor_id;sensor_type;location;lat;lon;timestamp;temperature;humidity
68977;SHT31;56029;52.568;13.588;2023-03-23T00:01:07;11.14;82.01
68977;SHT31;56029;52.568;13.588;2023-03-23T00:03:36;11.07;82.12
68977;SHT31;56029;52.568;13.588;2023-03-23T00:06:02;11.03;82.51
68977;SHT31;56029;52.568;13.588;2023-03-23T00:08:37;10.96;82.58
68977;SHT31;56029;52.568;13.588;2023-03-23T00:11:12;10.96;82.92
68977;SHT31;56029;52.568;13.588;2023-03-23T00:13:41;10.92;82.78
68977;SHT31;56029;52.568;13.588;2023-03-23T00:16:07;10.86;83.24
68977;SHT31;56029;52.568;13.588;2023-03-23T00:18:47;10.83;83.42
68977;SHT31;56029;52.568;13.588;2023-03-23T00:21:13;10.77;83.47
68977;SHT31;56029;52.568;13.588;2023-03-23T00:23:39;10.75;83.47
68977;SHT31;56029;52.568;13.588;2023-03-23T00:26:05;10.73;83.33
68977;SHT31;56029;52.568;13.588;2023-03-23T00:28:31;10.73;83.59
68977;SHT31;56029;52.568;13.588;2023-03-23T00:31:03;10.66;84.00
68977;SHT31;56029;52.568;13.588;2023-03-23T00:33:33;10.64;83.89
68977;SHT31;56029;52.568;13.588;2023-03-23T00:36:10;10.58;84.10
68977;SHT31;56029;52.568;13.588;2023-03-23T00:38:38;10.54;84.37
68977;SHT31;56029;52.568;13.588;2023-03-23T00:41:04;10.52;84.10
68977;SHT31;56029;52.568;13.588;2023-03-23T00:43:30;10.48;84.41
68977;SHT31;56029;52.568;13.588;2023-03-23T00:45:57;10.48;84.44
68977;SHT31;56029;52.568;13.588;2023-03-23T00:48:28;10.42;85.08
68977;SHT31;56029;52.568;13.588;2023-03-23T00:50:54;10.38;84.98
68977;SHT31;56029;52.568;13.588;2023-03-23T00:53:20;10.34;85.05
68977;SHT31;56029;52.568;13.588;2023-03-23T00:55:47;10.31;85.25
68977;SHT31;56029;52.568;13.588;2023-03-23T00:58:14;10.25;85.20
68977;SHT31;56029;52.568;13.588;2023-03-23T01:00:41;10.24;85.25
68977;SHT31;56029;52.568;13.588;2023-03-23T01:03:08;10.20;85.20
68977;SHT31;56029;52.568;13.588;2023-03-23T01:05:39;10.20;85.32
68977;SHT31;56029;52.568;13.588;2023-03-23T01:08:05;10.17;85.43
68977;SHT31;56029;52.568;13.588;2023-03-23T01:10:32;10.11;85.49
68977;SHT31;56029;52.568;13.588;2023-03-23T01:13:01;10.06;85.72
68977;SHT31;56029;52.568;13.588;2023-03-23T01:15:28;10.01;85.86
68977;SHT31;56029;52.568;13.588;2023-03-23T01:17:54;9.97;86.10
68977;SHT31;56029;52.568;13.588;2023-03-23T01:20:21;9.96;86.11
68977;SHT31;56029;52.568;13.588;2023-03-23T01:22:46;9.89;86.26
68977;SHT31;56029;52.568;13.588;2023-03-23T01:25:13;9.87;86.53
68977;SHT31;56029;52.568;13.588;2023-03-23T01:27:39;9.85;86.33
68977;SHT31;56029;52.568;13.588;2023-03-23T01:30:05;9.83;86.53
68977;SHT31;56029;52.568;13.588;2023-03-23T01:32:32;9.77;86.42
68977;SHT31;56029;52.568;13.588;2023-03-23T01:34:58;9.75;86.59
68977;SHT31;56029;52.568;13.588;2023-03-23T01:37:23;9.70;86.95
68977;SHT31;56029;52.568;13.588;2023-03-23T01:39:56;9.66;86.98
68977;SHT31;56029;52.568;13.588;2023-03-23T01:42:23;9.66;86.75
68977;SHT31;56029;52.568;13.588;2023-03-23T01:47:15;9.67;86.81
68977;SHT31;56029;52.568;13.588;2023-03-23T01:49:46;9.67;87.02
68977;SHT31;56029;52.568;13.588;2023-03-23T01:52:16;9.70;86.95
68977;SHT31;56029;52.568;13.588;2023-03-23T01:54:44;9.73;86.78
68977;SHT31;56029;52.568;13.588;2023-03-23T01:57:13;9.76;86.94
68977;SHT31;56029;52.568;13.588;2023-03-23T01:59:41;9.75;86.92
68977;SHT31;56029;52.568;13.588;2023-03-23T02:02:08;9.75;86.98
68977;SHT31;56029;52.568;13.588;2023-03-23T02:04:36;9.72;86.80
68977;SHT31;56029;52.568;13.588;2023-03-23T02:07:02;9.75;86.91
68977;SHT31;56029;52.568;13.588;2023-03-23T02:09:29;9.77;86.88
68977;SHT31;56029;52.568;13.588;2023-03-23T02:11:55;9.80;86.73
68977;SHT31;56029;52.568;13.588;2023-03-23T02:14:23;9.86;86.44
68977;SHT31;56029;52.568;13.588;2023-03-23T02:16:55;9.90;86.36
68977;SHT31;56029;52.568;13.588;2023-03-23T02:22:27;9.91;86.40
68977;SHT31;56029;52.568;13.588;2023-03-23T02:35:49;10.04;85.94
68977;SHT31;56029;52.568;13.588;2023-03-23T02:38:30;10.08;85.61
68977;SHT31;56029;52.568;13.588;2023-03-23T02:40:59;10.11;85.67
68977;SHT31;56029;52.568;13.588;2023-03-23T02:43:28;10.16;85.37
68977;SHT31;56029;52.568;13.588;2023-03-23T02:45:56;10.20;85.56
68977;SHT31;56029;52.568;13.588;2023-03-23T02:48:24;10.24;85.21
68977;SHT31;56029;52.568;13.588;2023-03-23T02:50:52;10.28;84.98
68977;SHT31;56029;52.568;13.588;2023-03-23T02:53:22;10.33;84.95
68977;SHT31;56029;52.568;13.588;2023-03-23T02:55:50;10.34;85.02
68977;SHT31;56029;52.568;13.588;2023-03-23T02:58:18;10.40;85.89
68977;SHT31;56029;52.568;13.588;2023-03-23T03:00:44;10.42;86.16
68977;SHT31;56029;52.568;13.588;2023-03-23T03:03:15;10.40;86.52
68977;SHT31;56029;52.568;13.588;2023-03-23T03:05:57;10.42;86.93
68977;SHT31;56029;52.568;13.588;2023-03-23T03:11:16;10.42;87.14
68977;SHT31;56029;52.568;13.588;2023-03-23T03:16:56;10.58;84.89
68977;SHT31;56029;52.568;13.588;2023-03-23T03:19:26;10.62;85.42
68977;SHT31;56029;52.568;13.588;2023-03-23T03:21:56;10.65;85.87
68977;SHT31;56029;52.568;13.588;2023-03-23T03:24:24;10.68;85.65
68977;SHT31;56029;52.568;13.588;2023-03-23T03:26:52;10.69;85.76
68977;SHT31;56029;52.568;13.588;2023-03-23T03:29:23;10.64;86.38
68977;SHT31;56029;52.568;13.588;2023-03-23T03:31:51;10.66;86.24
68977;SHT31;56029;52.568;13.588;2023-03-23T03:34:21;10.66;86.32
68977;SHT31;56029;52.568;13.588;2023-03-23T03:36:48;10.68;86.39
68977;SHT31;56029;52.568;13.588;2023-03-23T03:39:16;10.68;86.78
68977;SHT31;56029;52.568;13.588;2023-03-23T03:41:43;10.68;86.94
68977;SHT31;56029;52.568;13.588;2023-03-23T03:44:09;10.68;87.45
68977;SHT31;56029;52.568;13.588;2023-03-23T03:46:36;10.65;87.48
68977;SHT31;56029;52.568;13.588;2023-03-23T03:49:04;10.64;87.75
68977;SHT31;56029;52.568;13.588;2023-03-23T03:51:31;10.59;88.94
68977;SHT31;56029;52.568;13.588;2023-03-23T03:53:57;10.58;88.65
68977;SHT31;56029;52.568;13.588;2023-03-23T03:56:23;10.52;88.84
68977;SHT31;56029;52.568;13.588;2023-03-23T03:58:49;10.54;88.75
68977;SHT31;56029;52.568;13.588;2023-03-23T04:01:17;10.61;87.81
68977;SHT31;56029;52.568;13.588;2023-03-23T04:03:43;10.64;88.01
68977;SHT31;56029;52.568;13.588;2023-03-23T04:06:10;10.65;88.03
68977;SHT31;56029;52.568;13.588;2023-03-23T04:08:38;10.66;88.07
68977;SHT31;56029;52.568;13.588;2023-03-23T04:11:04;10.59;89.72
68977;SHT31;56029;52.568;13.588;2023-03-23T04:13:30;10.64;88.31
68977;SHT31;56029;52.568;13.588;2023-03-23T04:15:56;10.59;88.95
68977;SHT31;56029;52.568;13.588;2023-03-23T04:18:21;10.61;88.81
68977;SHT31;56029;52.568;13.588;2023-03-23T04:20:48;10.64;89.31
68977;SHT31;56029;52.568;13.588;2023-03-23T04:23:16;10.62;88.76
68977;SHT31;56029;52.568;13.588;2023-03-23T04:25:46;10.59;88.75
68977;SHT31;56029;52.568;13.588;2023-03-23T04:28:12;10.62;88.37
68977;SHT31;56029;52.568;13.588;2023-03-23T04:30:38;10.58;89.24
68977;SHT31;56029;52.568;13.588;2023-03-23T04:33:04;10.62;88.47
68977;SHT31;56029;52.568;13.588;2023-03-23T04:35:30;10.62;88.33
68977;SHT31;56029;52.568;13.588;2023-03-23T04:37:56;10.56;88.67
68977;SHT31;56029;52.568;13.588;2023-03-23T04:40:23;10.59;88.60
68977;SHT31;56029;52.568;13.588;2023-03-23T04:42:48;10.58;89.85
68977;SHT31;56029;52.568;13.588;2023-03-23T04:45:19;10.61;88.57
68977;SHT31;56029;52.568;13.588;2023-03-23T04:47:50;10.62;88.32
68977;SHT31;56029;52.568;13.588;2023-03-23T04:50:27;10.65;89.46
68977;SHT31;56029;52.568;13.588;2023-03-23T04:52:52;10.64;89.38
68977;SHT31;56029;52.568;13.588;2023-03-23T04:55:20;10.64;89.62
68977;SHT31;56029;52.568;13.588;2023-03-23T04:57:46;10.56;90.21
68977;SHT31;56029;52.568;13.588;2023-03-23T05:00:12;10.59;88.66
68977;SHT31;56029;52.568;13.588;2023-03-23T05:02:40;10.58;89.69
68977;SHT31;56029;52.568;13.588;2023-03-23T05:05:07;10.61;89.15
68977;SHT31;56029;52.568;13.588;2023-03-23T05:07:33;10.58;90.31
68977;SHT31;56029;52.568;13.588;2023-03-23T05:09:59;10.59;90.44
68977;SHT31;56029;52.568;13.588;2023-03-23T05:12:25;10.51;90.45
68977;SHT31;56029;52.568;13.588;2023-03-23T05:14:51;10.52;89.92
68977;SHT31;56029;52.568;13.588;2023-03-23T05:17:16;10.56;89.48
68977;SHT31;56029;52.568;13.588;2023-03-23T05:19:44;10.58;90.62
68977;SHT31;56029;52.568;13.588;2023-03-23T05:22:15;10.59;89.80
68977;SHT31;56029;52.568;13.588;2023-03-23T05:24:41;10.62;90.02
68977;SHT31;56029;52.568;13.588;2023-03-23T05:27:09;10.59;91.12
68977;SHT31;56029;52.568;13.588;2023-03-23T05:29:35;10.55;91.10
68977;SHT31;56029;52.568;13.588;2023-03-23T05:32:04;10.52;93.00
68977;SHT31;56029;52.568;13.588;2023-03-23T05:34:31;10.51;92.63
68977;SHT31;56029;52.568;13.588;2023-03-23T05:37:00;10.48;92.64
68977;SHT31;56029;52.568;13.588;2023-03-23T05:39:27;10.42;92.90
68977;SHT31;56029;52.568;13.588;2023-03-23T05:41:53;10.45;93.26
68977;SHT31;56029;52.568;13.588;2023-03-23T05:44:19;10.44;93.82
68977;SHT31;56029;52.568;13.588;2023-03-23T05:46:44;10.37;95.02
68977;SHT31;56029;52.568;13.588;2023-03-23T05:49:10;10.41;94.81
68977;SHT31;56029;52.568;13.588;2023-03-23T05:51:36;10.41;94.25
68977;SHT31;56029;52.568;13.588;2023-03-23T05:54:02;10.44;91.71
68977;SHT31;56029;52.568;13.588;2023-03-23T05:56:28;10.46;92.68
68977;SHT31;56029;52.568;13.588;2023-03-23T05:58:56;10.46;92.85
68977;SHT31;56029;52.568;13.588;2023-03-23T06:01:21;10.52;92.80
68977;SHT31;56029;52.568;13.588;2023-03-23T06:03:47;10.49;93.93
68977;SHT31;56029;52.568;13.588;2023-03-23T06:06:14;10.51;93.57
68977;SHT31;56029;52.568;13.588;2023-03-23T06:08:39;10.54;93.24
68977;SHT31;56029;52.568;13.588;2023-03-23T06:11:05;10.58;93.55
68977;SHT31;56029;52.568;13.588;2023-03-23T06:13:31;10.51;94.04
68977;SHT31;56029;52.568;13.588;2023-03-23T06:15:57;10.48;95.24
68977;SHT31;56029;52.568;13.588;2023-03-23T06:18:23;10.45;95.67
68977;SHT31;56029;52.568;13.588;2023-03-23T06:20:49;10.48;95.53
68977;SHT31;56029;52.568;13.588;2023-03-23T06:23:16;10.44;96.31
68977;SHT31;56029;52.568;13.588;2023-03-23T06:25:43;10.45;96.40
68977;SHT31;56029;52.568;13.588;2023-03-23T06:28:09;10.35;96.99
68977;SHT31;56029;52.568;13.588;2023-03-23T06:30:36;10.40;97.10
68977;SHT31;56029;52.568;13.588;2023-03-23T06:33:02;10.41;97.19
68977;SHT31;56029;52.568;13.588;2023-03-23T06:37:58;10.42;96.68
68977;SHT31;56029;52.568;13.588;2023-03-23T06:40:27;10.45;97.59
68977;SHT31;56029;52.568;13.588;2023-03-23T06:42:54;10.42;97.69
68977;SHT31;56029;52.568;13.588;2023-03-23T06:45:20;10.44;97.34
68977;SHT31;56029;52.568;13.588;2023-03-23T06:47:46;10.45;97.70
68977;SHT31;56029;52.568;13.588;2023-03-23T06:50:15;10.52;97.04
68977;SHT31;56029;52.568;13.588;2023-03-23T06:52:45;10.54;97.11
68977;SHT31;56029;52.568;13.588;2023-03-23T06:55:12;10.55;97.27
68977;SHT31;56029;52.568;13.588;2023-03-23T06:57:38;10.59;96.88
68977;SHT31;56029;52.568;13.588;2023-03-23T07:00:04;10.61;96.84
68977;SHT31;56029;52.568;13.588;2023-03-23T07:02:32;10.62;97.22
68977;SHT31;56029;52.568;13.588;2023-03-23T07:04:58;10.65;97.04
68977;SHT31;56029;52.568;13.588;2023-03-23T07:07:24;10.64;96.94
68977;SHT31;56029;52.568;13.588;2023-03-23T07:09:50;10.66;97.25
68977;SHT31;56029;52.568;13.588;2023-03-23T07:12:15;10.68;97.65
68977;SHT31;56029;52.568;13.588;2023-03-23T07:14:41;10.71;97.52
68977;SHT31;56029;52.568;13.588;2023-03-23T07:17:07;10.69;97.69
68977;SHT31;56029;52.568;13.588;2023-03-23T07:19:33;10.68;98.06
68977;SHT31;56029;52.568;13.588;2023-03-23T07:21:58;10.69;98.25
68977;SHT31;56029;52.568;13.588;2023-03-23T07:24:24;10.68;98.14
68977;SHT31;56029;52.568;13.588;2023-03-23T07:26:50;10.73;97.72
68977;SHT31;56029;52.568;13.588;2023-03-23T07:29:16;10.75;98.06
68977;SHT31;56029;52.568;13.588;2023-03-23T07:31:41;10.79;98.10
68977;SHT31;56029;52.568;13.588;2023-03-23T07:34:07;10.80;98.00
68977;SHT31;56029;52.568;13.588;2023-03-23T07:36:33;10.83;98.01
68977;SHT31;56029;52.568;13.588;2023-03-23T07:39:04;10.83;98.08
68977;SHT31;56029;52.568;13.588;2023-03-23T07:41:31;10.77;98.03
68977;SHT31;56029;52.568;13.588;2023-03-23T07:43:57;10.80;98.07
68977;SHT31;56029;52.568;13.588;2023-03-23T07:46:23;10.82;98.04
68977;SHT31;56029;52.568;13.588;2023-03-23T07:48:48;10.89;98.02
68977;SHT31;56029;52.568;13.588;2023-03-23T07:51:14;10.92;97.50
68977;SHT31;56029;52.568;13.588;2023-03-23T07:53:44;11.00;97.76
68977;SHT31;56029;52.568;13.588;2023-03-23T07:56:11;11.06;97.67
68977;SHT31;56029;52.568;13.588;2023-03-23T07:58:37;11.10;98.34
68977;SHT31;56029;52.568;13.588;2023-03-23T08:01:03;11.17;98.19
68977;SHT31;56029;52.568;13.588;2023-03-23T08:03:29;11.16;97.74
68977;SHT31;56029;52.568;13.588;2023-03-23T08:05:57;11.27;97.67
68977;SHT31;56029;52.568;13.588;2023-03-23T08:08:25;11.28;97.73
68977;SHT31;56029;52.568;13.588;2023-03-23T08:10:50;11.28;97.72
68977;SHT31;56029;52.568;13.588;2023-03-23T08:13:16;11.33;97.28
68977;SHT31;56029;52.568;13.588;2023-03-23T08:15:42;11.31;97.56
68977;SHT31;56029;52.568;13.588;2023-03-23T08:18:09;11.37;96.61
68977;SHT31;56029;52.568;13.588;2023-03-23T08:20:34;11.35;96.67
68977;SHT31;56029;52.568;13.588;2023-03-23T08:23:01;11.33;96.95
68977;SHT31;56029;52.568;13.588;2023-03-23T08:25:28;11.31;96.91
68977;SHT31;56029;52.568;13.588;2023-03-23T08:27:57;11.38;96.60
68977;SHT31;56029;52.568;13.588;2023-03-23T08:30:23;11.38;96.79
68977;SHT31;56029;52.568;13.588;2023-03-23T08:32:50;11.47;96.40
68977;SHT31;56029;52.568;13.588;2023-03-23T08:35:17;11.41;96.60
68977;SHT31;56029;52.568;13.588;2023-03-23T08:37:44;11.41;96.98
68977;SHT31;56029;52.568;13.588;2023-03-23T08:40:11;11.43;96.28
68977;SHT31;56029;52.568;13.588;2023-03-23T08:42:38;11.44;96.43
68977;SHT31;56029;52.568;13.588;2023-03-23T08:45:05;11.41;96.82
68977;SHT31;56029;52.568;13.588;2023-03-23T08:47:33;11.51;96.44
68977;SHT31;56029;52.568;13.588;2023-03-23T08:49:58;11.50;95.90
68977;SHT31;56029;52.568;13.588;2023-03-23T08:52:24;11.58;95.15
68977;SHT31;56029;52.568;13.588;2023-03-23T08:54:50;11.68;95.02
68977;SHT31;56029;52.568;13.588;2023-03-23T08:57:15;11.71;95.03
68977;SHT31;56029;52.568;13.588;2023-03-23T08:59:41;11.81;94.40
68977;SHT31;56029;52.568;13.588;2023-03-23T09:02:11;11.82;94.75
68977;SHT31;56029;52.568;13.588;2023-03-23T09:04:40;11.85;94.19
68977;SHT31;56029;52.568;13.588;2023-03-23T09:07:09;11.96;94.34
68977;SHT31;56029;52.568;13.588;2023-03-23T09:09:36;12.09;93.91
68977;SHT31;56029;52.568;13.588;2023-03-23T09:12:03;12.20;93.20
68977;SHT31;56029;52.568;13.588;2023-03-23T09:14:28;12.26;93.48
68977;SHT31;56029;52.568;13.588;2023-03-23T09:16:54;12.32;93.35
68977;SHT31;56029;52.568;13.588;2023-03-23T09:19:19;12.29;91.71
68977;SHT31;56029;52.568;13.588;2023-03-23T09:21:46;12.29;92.73
68977;SHT31;56029;52.568;13.588;2023-03-23T09:24:11;12.28;93.19
68977;SHT31;56029;52.568;13.588;2023-03-23T09:26:37;12.30;93.10
68977;SHT31;56029;52.568;13.588;2023-03-23T09:29:02;12.34;92.40
68977;SHT31;56029;52.568;13.588;2023-03-23T09:31:28;12.44;91.75
68977;SHT31;56029;52.568;13.588;2023-03-23T09:33:54;12.50;91.72
68977;SHT31;56029;52.568;13.588;2023-03-23T09:36:22;12.59;91.31
68977;SHT31;56029;52.568;13.588;2023-03-23T09:38:51;12.64;89.97
68977;SHT31;56029;52.568;13.588;2023-03-23T09:41:27;12.64;90.97
68977;SHT31;56029;52.568;13.588;2023-03-23T09:44:14;12.76;90.89
68977;SHT31;56029;52.568;13.588;2023-03-23T09:46:53;12.80;90.84
68977;SHT31;56029;52.568;13.588;2023-03-23T09:49:24;12.87;89.89
68977;SHT31;56029;52.568;13.588;2023-03-23T09:51:57;12.98;89.97
68977;SHT31;56029;52.568;13.588;2023-03-23T09:54:34;13.04;89.45
68977;SHT31;56029;52.568;13.588;2023-03-23T09:57:03;13.15;88.75
68977;SHT31;56029;52.568;13.588;2023-03-23T09:59:33;13.23;88.95
68977;SHT31;56029;52.568;13.588;2023-03-23T10:02:16;13.28;88.27
68977;SHT31;56029;52.568;13.588;2023-03-23T10:04:47;13.32;87.64
68977;SHT31;56029;52.568;13.588;2023-03-23T10:07:18;13.49;87.67
68977;SHT31;56029;52.568;13.588;2023-03-23T10:09:51;13.62;87.39
68977;SHT31;56029;52.568;13.588;2023-03-23T10:23:14;13.84;85.44
68977;SHT31;56029;52.568;13.588;2023-03-23T10:25:48;13.97;84.77
68977;SHT31;56029;52.568;13.588;2023-03-23T10:28:21;14.00;83.79
68977;SHT31;56029;52.568;13.588;2023-03-23T10:30:55;14.10;84.83
68977;SHT31;56029;52.568;13.588;2023-03-23T10:33:41;14.14;83.22
68977;SHT31;56029;52.568;13.588;2023-03-23T10:38:49;14.29;83.27
68977;SHT31;56029;52.568;13.588;2023-03-23T10:41:19;14.42;82.72
68977;SHT31;56029;52.568;13.588;2023-03-23T10:43:45;14.46;82.25
68977;SHT31;56029;52.568;13.588;2023-03-23T10:46:33;14.56;82.29
68977;SHT31;56029;52.568;13.588;2023-03-23T10:49:03;14.54;81.87
68977;SHT31;56029;52.568;13.588;2023-03-23T10:51:37;14.59;82.58
68977;SHT31;56029;52.568;13.588;2023-03-23T10:54:05;14.52;81.20
68977;SHT31;56029;52.568;13.588;2023-03-23T10:56:37;14.42;80.82
68977;SHT31;56029;52.568;13.588;2023-03-23T10:59:27;14.36;81.71
68977;SHT31;56029;52.568;13.588;2023-03-23T11:01:55;14.36;81.34
68977;SHT31;56029;52.568;13.588;2023-03-23T11:04:22;14.42;81.37
68977;SHT31;56029;52.568;13.588;2023-03-23T11:06:51;14.49;81.22
68977;SHT31;56029;52.568;13.588;2023-03-23T11:09:40;14.56;81.50
68977;SHT31;56029;52.568;13.588;2023-03-23T11:12:18;14.61;81.01
68977;SHT31;56029;52.568;13.588;2023-03-23T11:14:44;14.63;80.83
68977;SHT31;56029;52.568;13.588;2023-03-23T11:17:24;14.61;80.93
68977;SHT31;56029;52.568;13.588;2023-03-23T11:19:51;14.54;79.37
68977;SHT31;56029;52.568;13.588;2023-03-23T11:22:24;14.45;79.55
68977;SHT31;56029;52.568;13.588;2023-03-23T11:24:56;14.51;80.15
68977;SHT31;56029;52.568;13.588;2023-03-23T11:27:24;14.55;79.88
68977;SHT31;56029;52.568;13.588;2023-03-23T11:30:00;14.69;80.64
68977;SHT31;56029;52.568;13.588;2023-03-23T11:32:29;14.75;78.95
68977;SHT31;56029;52.568;13.588;2023-03-23T11:35:00;14.73;78.69
68977;SHT31;56029;52.568;13.588;2023-03-23T11:37:32;14.79;79.65
68977;SHT31;56029;52.568;13.588;2023-03-23T11:40:00;14.77;78.29
68977;SHT31;56029;52.568;13.588;2023-03-23T11:42:37;14.86;78.43
68977;SHT31;56029;52.568;13.588;2023-03-23T11:45:32;15.00;78.25
68977;SHT31;56029;52.568;13.588;2023-03-23T11:48:18;15.10;78.38
68977;SHT31;56029;52.568;13.588;2023-03-23T11:53:45;15.04;76.11
68977;SHT31;56029;52.568;13.588;2023-03-23T11:56:34;15.02;76.02
68977;SHT31;56029;52.568;13.588;2023-03-23T11:59:00;15.16;76.74
68977;SHT31;56029;52.568;13.588;2023-03-23T12:01:46;15.10;75.83
68977;SHT31;56029;52.568;13.588;2023-03-23T12:07:28;15.28;76.03
68977;SHT31;56029;52.568;13.588;2023-03-23T12:10:04;15.31;75.43
68977;SHT31;56029;52.568;13.588;2023-03-23T12:12:38;15.48;76.03
68977;SHT31;56029;52.568;13.588;2023-03-23T12:15:23;15.21;74.64
68977;SHT31;56029;52.568;13.588;2023-03-23T12:20:46;15.07;74.63
68977;SHT31;56029;52.568;13.588;2023-03-23T12:23:21;15.07;74.76
68977;SHT31;56029;52.568;13.588;2023-03-23T12:26:07;15.00;75.77
68977;SHT31;56029;52.568;13.588;2023-03-23T12:28:55;15.00;75.36
68977;SHT31;56029;52.568;13.588;2023-03-23T12:31:40;15.10;76.21
68977;SHT31;56029;52.568;13.588;2023-03-23T12:42:43;15.37;75.44
68977;SHT31;56029;52.568;13.588;2023-03-23T12:47:45;15.33;73.59
68977;SHT31;56029;52.568;13.588;2023-03-23T12:53:10;15.35;74.42
68977;SHT31;56029;52.568;13.588;2023-03-23T12:58:15;15.30;74.82
68977;SHT31;56029;52.568;13.588;2023-03-23T13:03:39;15.62;73.71
68977;SHT31;56029;52.568;13.588;2023-03-23T13:06:30;15.63;72.73
68977;SHT31;56029;52.568;13.588;2023-03-23T13:11:33;15.75;72.76
68977;SHT31;56029;52.568;13.588;2023-03-23T13:16:49;15.73;72.98
68977;SHT31;56029;52.568;13.588;2023-03-23T13:19:38;15.78;73.41
68977;SHT31;56029;52.568;13.588;2023-03-23T13:22:13;15.75;73.21
68977;SHT31;56029;52.568;13.588;2023-03-23T13:24:52;15.85;72.71
68977;SHT31;56029;52.568;13.588;2023-03-23T13:27:23;15.98;74.42
68977;SHT31;56029;52.568;13.588;2023-03-23T13:29:50;16.13;72.45
68977;SHT31;56029;52.568;13.588;2023-03-23T13:32:17;16.26;72.13
68977;SHT31;56029;52.568;13.588;2023-03-23T13:34:46;16.20;71.06
68977;SHT31;56029;52.568;13.588;2023-03-23T13:37:21;16.26;71.31
68977;SHT31;56029;52.568;13.588;2023-03-23T13:42:26;15.99;71.11
68977;SHT31;56029;52.568;13.588;2023-03-23T13:49:57;15.98;71.15
68977;SHT31;56029;52.568;13.588;2023-03-23T14:10:59;16.21;68.38
68977;SHT31;56029;52.568;13.588;2023-03-23T14:13:47;16.21;67.18
68977;SHT31;56029;52.568;13.588;2023-03-23T14:16:45;16.34;66.26
68977;SHT31;56029;52.568;13.588;2023-03-23T14:19:21;16.33;64.99
68977;SHT31;56029;52.568;13.588;2023-03-23T14:21:53;16.37;65.67
68977;SHT31;56029;52.568;13.588;2023-03-23T14:24:25;16.53;65.81
68977;SHT31;56029;52.568;13.588;2023-03-23T14:26:53;16.53;63.08
68977;SHT31;56029;52.568;13.588;2023-03-23T14:29:26;16.46;63.16
68977;SHT31;56029;52.568;13.588;2023-03-23T14:31:55;16.49;64.37
68977;SHT31;56029;52.568;13.588;2023-03-23T14:34:23;16.41;64.42
68977;SHT31;56029;52.568;13.588;2023-03-23T14:36:50;16.51;64.09
68977;SHT31;56029;52.568;13.588;2023-03-23T14:39:32;16.43;63.55
68977;SHT31;56029;52.568;13.588;2023-03-23T14:42:04;16.39;64.31
68977;SHT31;56029;52.568;13.588;2023-03-23T14:44:34;16.54;64.38
68977;SHT31;56029;52.568;13.588;2023-03-23T14:47:22;16.37;64.55
68977;SHT31;56029;52.568;13.588;2023-03-23T14:49:53;16.20;64.66
68977;SHT31;56029;52.568;13.588;2023-03-23T14:52:22;16.06;66.31
68977;SHT31;56029;52.568;13.588;2023-03-23T14:54:48;15.95;66.42
68977;SHT31;56029;52.568;13.588;2023-03-23T14:57:27;15.88;67.09
68977;SHT31;56029;52.568;13.588;2023-03-23T14:59:53;15.81;66.56
68977;SHT31;56029;52.568;13.588;2023-03-23T15:02:33;15.73;66.37
68977;SHT31;56029;52.568;13.588;2023-03-23T15:05:03;15.69;66.67
68977;SHT31;56029;52.568;13.588;2023-03-23T15:07:33;15.65;66.43
68977;SHT31;56029;52.568;13.588;2023-03-23T15:09:59;15.63;67.85
68977;SHT31;56029;52.568;13.588;2023-03-23T15:12:28;15.68;68.47
68977;SHT31;56029;52.568;13.588;2023-03-23T15:14:57;15.65;67.72
68977;SHT31;56029;52.568;13.588;2023-03-23T15:17:29;15.89;68.45
68977;SHT31;56029;52.568;13.588;2023-03-23T15:19:56;16.02;68.79
68977;SHT31;56029;52.568;13.588;2023-03-23T15:22:29;16.03;68.73
68977;SHT31;56029;52.568;13.588;2023-03-23T15:25:22;16.21;69.72
68977;SHT31;56029;52.568;13.588;2023-03-23T15:27:53;16.23;69.47
68977;SHT31;56029;52.568;13.588;2023-03-23T15:32:51;16.10;70.02
68977;SHT31;56029;52.568;13.588;2023-03-23T15:35:22;16.10;70.45
68977;SHT31;56029;52.568;13.588;2023-03-23T15:38:00;16.09;70.58
68977;SHT31;56029;52.568;13.588;2023-03-23T15:40:27;16.05;69.18
68977;SHT31;56029;52.568;13.588;2023-03-23T15:43:18;16.00;69.37
68977;SHT31;56029;52.568;13.588;2023-03-23T15:46:03;15.96;69.63
68977;SHT31;56029;52.568;13.588;2023-03-23T15:48:32;15.92;67.77
68977;SHT31;56029;52.568;13.588;2023-03-23T15:50:58;15.93;68.66
68977;SHT31;56029;52.568;13.588;2023-03-23T15:53:33;15.85;68.89
68977;SHT31;56029;52.568;13.588;2023-03-23T15:56:01;15.68;69.31
68977;SHT31;56029;52.568;13.588;2023-03-23T15:58:28;15.57;68.85
68977;SHT31;56029;52.568;13.588;2023-03-23T16:00:54;15.41;68.80
68977;SHT31;56029;52.568;13.588;2023-03-23T16:03:23;15.38;69.96
68977;SHT31;56029;52.568;13.588;2023-03-23T16:05:52;15.40;69.53
68977;SHT31;56029;52.568;13.588;2023-03-23T16:08:18;15.34;69.23
68977;SHT31;56029;52.568;13.588;2023-03-23T16:10:44;15.35;68.06
68977;SHT31;56029;52.568;13.588;2023-03-23T16:13:09;15.34;68.77
68977;SHT31;56029;52.568;13.588;2023-03-23T16:15:35;15.33;68.72
68977;SHT31;56029;52.568;13.588;2023-03-23T16:18:01;15.30;69.13
68977;SHT31;56029;52.568;13.588;2023-03-23T16:20:28;15.24;68.49
68977;SHT31;56029;52.568;13.588;2023-03-23T16:22:54;15.21;68.93
68977;SHT31;56029;52.568;13.588;2023-03-23T16:25:20;15.21;68.20
68977;SHT31;56029;52.568;13.588;2023-03-23T16:27:46;15.21;68.24
68977;SHT31;56029;52.568;13.588;2023-03-23T16:30:24;15.23;67.95
68977;SHT31;56029;52.568;13.588;2023-03-23T16:32:50;15.24;67.73
68977;SHT31;56029;52.568;13.588;2023-03-23T16:35:16;15.28;67.01
68977;SHT31;56029;52.568;13.588;2023-03-23T16:37:50;15.31;67.29
68977;SHT31;56029;52.568;13.588;2023-03-23T16:40:16;15.47;65.43
68977;SHT31;56029;52.568;13.588;2023-03-23T16:42:42;15.45;65.33
68977;SHT31;56029;52.568;13.588;2023-03-23T16:45:09;15.48;64.15
68977;SHT31;56029;52.568;13.588;2023-03-23T16:47:35;15.45;65.16
68977;SHT31;56029;52.568;13.588;2023-03-23T16:50:01;15.48;64.35
68977;SHT31;56029;52.568;13.588;2023-03-23T16:52:27;15.48;64.15
68977;SHT31;56029;52.568;13.588;2023-03-23T16:54:53;14.90;72.83
68977;SHT31;56029;52.568;13.588;2023-03-23T16:57:18;14.14;76.72
68977;SHT31;56029;52.568;13.588;2023-03-23T16:59:44;13.78;78.71
68977;SHT31;56029;52.568;13.588;2023-03-23T17:02:11;13.59;79.66
68977;SHT31;56029;52.568;13.588;2023-03-23T17:04:41;13.48;80.95
68977;SHT31;56029;52.568;13.588;2023-03-23T17:07:07;13.29;81.82
68977;SHT31;56029;52.568;13.588;2023-03-23T17:09:33;13.14;82.78
68977;SHT31;56029;52.568;13.588;2023-03-23T17:11:58;13.04;83.11